sensor_id;sensor_type;location;lat;lon;timestamp;P1;durP1;ratioP1;P2;durP2;ratioP2
58017;SDS011;43810;50.860;19.226;2023-02-04T00:01:48;21.40;;;8.57;;
58017;SDS011;43810;50.860;19.226;2023-02-04T00:04:14;27.05;;;11.27;;
58017;SDS011;43810;50.860;19.226;2023-02-04T00:06:40;35.38;;;12.80;;
58017;SDS011;43810;50.860;19.226;2023-02-04T00:09:06;27.35;;;9.75;;
58017;SDS011;43810;50.860;19.226;2023-02-04T00:11:33;20.30;;;7.63;;
58017;SDS011;43810;50.860;19.226;2023-02-04T00:13:59;25.92;;;8.35;;
58017;SDS011;43810;50.860;19.226;2023-02-04T00:16:25;20.70;;;8.65;;
58017;SDS011;43810;50.860;19.226;2023-02-04T00:18:50;24.65;;;8.20;;
58017;SDS011;43810;50.860;19.226;2023-02-04T00:21:16;11.80;;;6.15;;
58017;SDS011;43810;50.860;19.226;2023-02-04T00:23:42;20.25;;;6.93;;
58017;SDS011;43810;50.860;19.226;2023-02-04T00:26:08;16.30;;;5.40;;
58017;SDS011;43810;50.860;19.226;2023-02-04T00:28:34;16.98;;;7.10;;
58017;SDS011;43810;50.860;19.226;2023-02-04T00:31:00;12.40;;;4.75;;
58017;SDS011;43810;50.860;19.226;2023-02-04T00:33:25;17.85;;;5.90;;
58017;SDS011;43810;50.860;19.226;2023-02-04T00:35:52;6.78;;;3.17;;
58017;SDS011;43810;50.860;19.226;2023-02-04T00:38:17;10.35;;;5.03;;
58017;SDS011;43810;50.860;19.226;2023-02-04T00:40:43;10.38;;;4.15;;
58017;SDS011;43810;50.860;19.226;2023-02-04T00:43:09;10.15;;;4.35;;
58017;SDS011;43810;50.860;19.226;2023-02-04T00:45:35;7.07;;;3.88;;
58017;SDS011;43810;50.860;19.226;2023-02-04T00:48:01;8.95;;;4.88;;
58017;SDS011;43810;50.860;19.226;2023-02-04T00:50:27;8.45;;;4.25;;
58017;SDS011;43810;50.860;19.226;2023-02-04T00:52:53;12.85;;;4.80;;
58017;SDS011;43810;50.860;19.226;2023-02-04T00:55:19;9.80;;;4.57;;
58017;SDS011;43810;50.860;19.226;2023-02-04T00:57:45;24.95;;;9.65;;
58017;SDS011;43810;50.860;19.226;2023-02-04T01:00:16;21.33;;;8.23;;
58017;SDS011;43810;50.860;19.226;2023-02-04T01:02:42;18.75;;;7.22;;
58017;SDS011;43810;50.860;19.226;2023-02-04T01:05:08;28.65;;;10.30;;
58017;SDS011;43810;50.860;19.226;2023-02-04T01:07:34;18.60;;;8.80;;
58017;SDS011;43810;50.860;19.226;2023-02-04T01:10:00;16.63;;;7.65;;
58017;SDS011;43810;50.860;19.226;2023-02-04T01:12:26;19.90;;;7.47;;
58017;SDS011;43810;50.860;19.226;2023-02-04T01:14:53;17.25;;;6.82;;
58017;SDS011;43810;50.860;19.226;2023-02-04T01:17:20;16.33;;;7.13;;
58017;SDS011;43810;50.860;19.226;2023-02-04T01:19:46;22.50;;;9.80;;
58017;SDS011;43810;50.860;19.226;2023-02-04T01:22:12;19.92;;;7.22;;
58017;SDS011;43810;50.860;19.226;2023-02-04T01:24:39;16.10;;;5.97;;
58017;SDS011;43810;50.860;19.226;2023-02-04T01:27:04;16.42;;;7.88;;
58017;SDS011;43810;50.860;19.226;2023-02-04T01:29:30;17.08;;;7.35;;
58017;SDS011;43810;50.860;19.226;2023-02-04T01:31:56;18.80;;;7.20;;
58017;SDS011;43810;50.860;19.226;2023-02-04T01:34:22;14.68;;;6.25;;
58017;SDS011;43810;50.860;19.226;2023-02-04T01:36:50;10.32;;;5.10;;
58017;SDS011;43810;50.860;19.226;2023-02-04T01:39:16;16.98;;;6.57;;
58017;SDS011;43810;50.860;19.226;2023-02-04T01:41:42;16.75;;;5.10;;
58017;SDS011;43810;50.860;19.226;2023-02-04T01:44:08;14.73;;;5.55;;
58017;SDS011;43810;50.860;19.226;2023-02-04T01:46:34;15.80;;;5.93;;
58017;SDS011;43810;50.860;19.226;2023-02-04T01:49:02;14.70;;;5.47;;
58017;SDS011;43810;50.860;19.226;2023-02-04T01:51:29;12.27;;;5.45;;
58017;SDS011;43810;50.860;19.226;2023-02-04T01:53:57;16.70;;;6.63;;
58017;SDS011;43810;50.860;19.226;2023-02-04T01:56:25;17.83;;;5.35;;
58017;SDS011;43810;50.860;19.226;2023-02-04T01:58:52;13.63;;;5.53;;
58017;SDS011;43810;50.860;19.226;2023-02-04T02:01:36;13.55;;;5.28;;
58017;SDS011;43810;50.860;19.226;2023-02-04T02:04:14;10.02;;;4.53;;
58017;SDS011;43810;50.860;19.226;2023-02-04T02:06:43;11.43;;;5.10;;
58017;SDS011;43810;50.860;19.226;2023-02-04T02:09:13;15.88;;;5.88;;
58017;SDS011;43810;50.860;19.226;2023-02-04T02:11:40;12.32;;;5.43;;
58017;SDS011;43810;50.860;19.226;2023-02-04T02:14:06;11.90;;;5.47;;
58017;SDS011;43810;50.860;19.226;2023-02-04T02:16:32;10.07;;;4.88;;
58017;SDS011;43810;50.860;19.226;2023-02-04T02:18:58;14.55;;;5.93;;
58017;SDS011;43810;50.860;19.226;2023-02-04T02:21:59;13.15;;;5.57;;
58017;SDS011;43810;50.860;19.226;2023-02-04T02:24:28;12.43;;;5.15;;
58017;SDS011;43810;50.860;19.226;2023-02-04T02:26:59;9.68;;;4.45;;
58017;SDS011;43810;50.860;19.226;2023-02-04T02:29:31;11.20;;;4.45;;
58017;SDS011;43810;50.860;19.226;2023-02-04T02:31:57;14.20;;;5.53;;
58017;SDS011;43810;50.860;19.226;2023-02-04T02:34:25;14.73;;;5.40;;
58017;SDS011;43810;50.860;19.226;2023-02-04T02:36:52;13.13;;;5.47;;
58017;SDS011;43810;50.860;19.226;2023-02-04T02:39:19;14.20;;;5.10;;
58017;SDS011;43810;50.860;19.226;2023-02-04T02:41:45;6.45;;;2.63;;
58017;SDS011;43810;50.860;19.226;2023-02-04T02:44:12;10.25;;;4.57;;
58017;SDS011;43810;50.860;19.226;2023-02-04T02:46:40;15.23;;;7.35;;
58017;SDS011;43810;50.860;19.226;2023-02-04T02:49:07;15.15;;;8.35;;
58017;SDS011;43810;50.860;19.226;2023-02-04T02:51:40;20.35;;;8.38;;
58017;SDS011;43810;50.860;19.226;2023-02-04T02:54:20;20.48;;;11.48;;
58017;SDS011;43810;50.860;19.226;2023-02-04T02:56:53;21.33;;;10.25;;
58017;SDS011;43810;50.860;19.226;2023-02-04T02:59:20;32.80;;;13.95;;
58017;SDS011;43810;50.860;19.226;2023-02-04T03:01:47;38.42;;;13.63;;
58017;SDS011;43810;50.860;19.226;2023-02-04T03:04:18;35.55;;;15.48;;
58017;SDS011;43810;50.860;19.226;2023-02-04T03:06:46;24.73;;;11.43;;
58017;SDS011;43810;50.860;19.226;2023-02-04T03:09:12;24.67;;;11.07;;
58017;SDS011;43810;50.860;19.226;2023-02-04T03:11:38;21.92;;;10.00;;
58017;SDS011;43810;50.860;19.226;2023-02-04T03:14:04;20.90;;;10.18;;
58017;SDS011;43810;50.860;19.226;2023-02-04T03:16:31;18.52;;;10.30;;
58017;SDS011;43810;50.860;19.226;2023-02-04T03:18:59;22.83;;;10.98;;
58017;SDS011;43810;50.860;19.226;2023-02-04T03:21:26;19.35;;;8.90;;
58017;SDS011;43810;50.860;19.226;2023-02-04T03:23:52;18.80;;;8.73;;
58017;SDS011;43810;50.860;19.226;2023-02-04T03:26:25;12.40;;;7.00;;
58017;SDS011;43810;50.860;19.226;2023-02-04T03:28:52;15.98;;;8.50;;
58017;SDS011;43810;50.860;19.226;2023-02-04T03:31:18;27.75;;;9.93;;
58017;SDS011;43810;50.860;19.226;2023-02-04T03:33:45;26.88;;;11.38;;
58017;SDS011;43810;50.860;19.226;2023-02-04T03:36:10;16.80;;;10.82;;
58017;SDS011;43810;50.860;19.226;2023-02-04T03:38:36;20.65;;;10.32;;
58017;SDS011;43810;50.860;19.226;2023-02-04T03:41:02;19.67;;;9.90;;
58017;SDS011;43810;50.860;19.226;2023-02-04T03:43:28;13.15;;;7.65;;
58017;SDS011;43810;50.860;19.226;2023-02-04T03:45:54;15.93;;;7.93;;
58017;SDS011;43810;50.860;19.226;2023-02-04T03:48:20;13.13;;;7.15;;
58017;SDS011;43810;50.860;19.226;2023-02-04T03:50:45;14.25;;;7.53;;
58017;SDS011;43810;50.860;19.226;2023-02-04T03:53:11;10.50;;;6.53;;
58017;SDS011;43810;50.860;19.226;2023-02-04T03:55:37;16.77;;;8.77;;
58017;SDS011;43810;50.860;19.226;2023-02-04T03:58:03;21.42;;;9.27;;
58017;SDS011;43810;50.860;19.226;2023-02-04T04:00:29;16.13;;;8.23;;
58017;SDS011;43810;50.860;19.226;2023-02-04T04:02:57;19.30;;;7.93;;
58017;SDS011;43810;50.860;19.226;2023-02-04T04:05:23;20.23;;;8.32;;
58017;SDS011;43810;50.860;19.226;2023-02-04T04:07:49;10.95;;;6.45;;
58017;SDS011;43810;50.860;19.226;2023-02-04T04:10:15;13.93;;;6.18;;
58017;SDS011;43810;50.860;19.226;2023-02-04T04:12:41;11.85;;;6.43;;
58017;SDS011;43810;50.860;19.226;2023-02-04T04:15:07;10.93;;;5.60;;
58017;SDS011;43810;50.860;19.226;2023-02-04T04:17:33;9.50;;;5.93;;
58017;SDS011;43810;50.860;19.226;2023-02-04T04:19:59;8.32;;;4.93;;
58017;SDS011;43810;50.860;19.226;2023-02-04T04:22:27;10.00;;;5.38;;
58017;SDS011;43810;50.860;19.226;2023-02-04T04:24:53;9.75;;;5.00;;
58017;SDS011;43810;50.860;19.226;2023-02-04T04:27:19;8.73;;;4.70;;
58017;SDS011;43810;50.860;19.226;2023-02-04T04:29:45;13.88;;;5.60;;
58017;SDS011;43810;50.860;19.226;2023-02-04T04:32:11;7.90;;;4.80;;
58017;SDS011;43810;50.860;19.226;2023-02-04T04:34:37;9.35;;;4.30;;
58017;SDS011;43810;50.860;19.226;2023-02-04T04:37:03;12.30;;;6.15;;
58017;SDS011;43810;50.860;19.226;2023-02-04T04:39:29;7.07;;;4.78;;
58017;SDS011;43810;50.860;19.226;2023-02-04T04:41:55;8.10;;;5.22;;
58017;SDS011;43810;50.860;19.226;2023-02-04T04:44:21;9.93;;;4.75;;
58017;SDS011;43810;50.860;19.226;2023-02-04T04:46:47;10.88;;;5.70;;
58017;SDS011;43810;50.860;19.226;2023-02-04T04:49:12;10.48;;;6.32;;
58017;SDS011;43810;50.860;19.226;2023-02-04T04:51:39;8.00;;;4.95;;
58017;SDS011;43810;50.860;19.226;2023-02-04T04:54:04;13.35;;;5.88;;
58017;SDS011;43810;50.860;19.226;2023-02-04T04:56:30;9.15;;;5.65;;
58017;SDS011;43810;50.860;19.226;2023-02-04T04:58:56;7.88;;;4.78;;
58017;SDS011;43810;50.860;19.226;2023-02-04T05:01:22;12.57;;;7.55;;
58017;SDS011;43810;50.860;19.226;2023-02-04T05:03:48;10.50;;;5.47;;
58017;SDS011;43810;50.860;19.226;2023-02-04T05:06:14;12.30;;;6.97;;
58017;SDS011;43810;50.860;19.226;2023-02-04T05:08:40;12.82;;;6.50;;
58017;SDS011;43810;50.860;19.226;2023-02-04T05:11:06;13.80;;;7.28;;
58017;SDS011;43810;50.860;19.226;2023-02-04T05:13:32;18.05;;;8.48;;
58017;SDS011;43810;50.860;19.226;2023-02-04T05:15:58;12.43;;;6.45;;
58017;SDS011;43810;50.860;19.226;2023-02-04T05:18:23;12.38;;;8.07;;
58017;SDS011;43810;50.860;19.226;2023-02-04T05:20:49;12.30;;;5.85;;
58017;SDS011;43810;50.860;19.226;2023-02-04T05:23:15;16.13;;;5.93;;
58017;SDS011;43810;50.860;19.226;2023-02-04T05:25:42;11.90;;;6.20;;
58017;SDS011;43810;50.860;19.226;2023-02-04T05:28:07;10.98;;;6.28;;
58017;SDS011;43810;50.860;19.226;2023-02-04T05:30:33;9.10;;;5.75;;
58017;SDS011;43810;50.860;19.226;2023-02-04T05:32:59;10.13;;;5.75;;
58017;SDS011;43810;50.860;19.226;2023-02-04T05:35:25;12.45;;;7.10;;
58017;SDS011;43810;50.860;19.226;2023-02-04T05:37:51;18.23;;;8.18;;
58017;SDS011;43810;50.860;19.226;2023-02-04T05:40:17;11.00;;;5.20;;
58017;SDS011;43810;50.860;19.226;2023-02-04T05:42:42;11.77;;;6.50;;
58017;SDS011;43810;50.860;19.226;2023-02-04T05:45:10;13.25;;;6.82;;
58017;SDS011;43810;50.860;19.226;2023-02-04T05:47:39;13.70;;;6.90;;
58017;SDS011;43810;50.860;19.226;2023-02-04T05:50:05;13.18;;;6.28;;
58017;SDS011;43810;50.860;19.226;2023-02-04T05:52:31;11.50;;;6.70;;
58017;SDS011;43810;50.860;19.226;2023-02-04T05:54:57;15.45;;;8.02;;
58017;SDS011;43810;50.860;19.226;2023-02-04T05:57:22;12.30;;;6.13;;
58017;SDS011;43810;50.860;19.226;2023-02-04T05:59:48;15.40;;;6.25;;
58017;SDS011;43810;50.860;19.226;2023-02-04T06:02:14;17.65;;;8.35;;
58017;SDS011;43810;50.860;19.226;2023-02-04T06:04:40;12.63;;;6.60;;
58017;SDS011;43810;50.860;19.226;2023-02-04T06:07:06;11.27;;;6.43;;
58017;SDS011;43810;50.860;19.226;2023-02-04T06:09:32;13.52;;;6.63;;
58017;SDS011;43810;50.860;19.226;2023-02-04T06:11:58;12.63;;;6.07;;
58017;SDS011;43810;50.860;19.226;2023-02-04T06:14:24;9.55;;;5.93;;
58017;SDS011;43810;50.860;19.226;2023-02-04T06:16:50;10.27;;;5.47;;
58017;SDS011;43810;50.860;19.226;2023-02-04T06:19:16;11.80;;;6.03;;
58017;SDS011;43810;50.860;19.226;2023-02-04T06:21:41;9.93;;;4.97;;
58017;SDS011;43810;50.860;19.226;2023-02-04T06:24:08;10.50;;;5.55;;
58017;SDS011;43810;50.860;19.226;2023-02-04T06:26:34;8.63;;;6.05;;
58017;SDS011;43810;50.860;19.226;2023-02-04T06:29:00;8.40;;;4.57;;
58017;SDS011;43810;50.860;19.226;2023-02-04T06:31:26;11.30;;;6.22;;
58017;SDS011;43810;50.860;19.226;2023-02-04T06:33:52;15.45;;;6.45;;
58017;SDS011;43810;50.860;19.226;2023-02-04T06:36:18;9.85;;;5.57;;
58017;SDS011;43810;50.860;19.226;2023-02-04T06:38:44;14.32;;;6.28;;
58017;SDS011;43810;50.860;19.226;2023-02-04T06:41:09;8.95;;;5.68;;
58017;SDS011;43810;50.860;19.226;2023-02-04T06:43:35;14.63;;;5.15;;
58017;SDS011;43810;50.860;19.226;2023-02-04T06:46:01;12.52;;;5.95;;
58017;SDS011;43810;50.860;19.226;2023-02-04T06:48:27;10.50;;;5.82;;
58017;SDS011;43810;50.860;19.226;2023-02-04T06:50:53;13.70;;;5.97;;
58017;SDS011;43810;50.860;19.226;2023-02-04T06:53:19;15.23;;;7.65;;
58017;SDS011;43810;50.860;19.226;2023-02-04T06:55:44;13.75;;;7.47;;
58017;SDS011;43810;50.860;19.226;2023-02-04T06:58:11;13.80;;;8.43;;
58017;SDS011;43810;50.860;19.226;2023-02-04T07:00:36;17.40;;;8.70;;
58017;SDS011;43810;50.860;19.226;2023-02-04T07:03:02;10.77;;;6.15;;
58017;SDS011;43810;50.860;19.226;2023-02-04T07:05:28;16.75;;;7.40;;
58017;SDS011;43810;50.860;19.226;2023-02-04T07:07:55;9.57;;;5.32;;
58017;SDS011;43810;50.860;19.226;2023-02-04T07:10:21;9.45;;;5.78;;
58017;SDS011;43810;50.860;19.226;2023-02-04T07:12:47;11.43;;;7.10;;
58017;SDS011;43810;50.860;19.226;2023-02-04T07:15:13;11.90;;;6.68;;
58017;SDS011;43810;50.860;19.226;2023-02-04T07:17:39;11.57;;;5.80;;
58017;SDS011;43810;50.860;19.226;2023-02-04T07:20:05;13.93;;;7.22;;
58017;SDS011;43810;50.860;19.226;2023-02-04T07:22:31;12.35;;;7.07;;
58017;SDS011;43810;50.860;19.226;2023-02-04T07:24:57;13.43;;;7.53;;
58017;SDS011;43810;50.860;19.226;2023-02-04T07:27:23;17.15;;;8.95;;
58017;SDS011;43810;50.860;19.226;2023-02-04T07:29:48;14.18;;;7.82;;
58017;SDS011;43810;50.860;19.226;2023-02-04T07:32:14;16.42;;;8.95;;
58017;SDS011;43810;50.860;19.226;2023-02-04T07:34:40;15.68;;;7.60;;
58017;SDS011;43810;50.860;19.226;2023-02-04T07:37:06;19.33;;;9.07;;
58017;SDS011;43810;50.860;19.226;2023-02-04T07:39:32;13.20;;;8.15;;
58017;SDS011;43810;50.860;19.226;2023-02-04T07:41:57;15.27;;;8.90;;
58017;SDS011;43810;50.860;19.226;2023-02-04T07:44:23;14.52;;;8.60;;
58017;SDS011;43810;50.860;19.226;2023-02-04T07:46:49;16.52;;;10.07;;
58017;SDS011;43810;50.860;19.226;2023-02-04T07:49:15;19.83;;;9.77;;
58017;SDS011;43810;50.860;19.226;2023-02-04T07:51:41;16.48;;;9.05;;
58017;SDS011;43810;50.860;19.226;2023-02-04T07:54:07;19.83;;;10.57;;
58017;SDS011;43810;50.860;19.226;2023-02-04T07:56:33;15.60;;;9.32;;
58017;SDS011;43810;50.860;19.226;2023-02-04T07:58:59;20.02;;;10.30;;
58017;SDS011;43810;50.860;19.226;2023-02-04T08:01:25;18.77;;;10.10;;
58017;SDS011;43810;50.860;19.226;2023-02-04T08:03:51;20.23;;;9.95;;
58017;SDS011;43810;50.860;19.226;2023-02-04T08:06:17;20.58;;;10.40;;
58017;SDS011;43810;50.860;19.226;2023-02-04T08:08:43;21.00;;;11.52;;
58017;SDS011;43810;50.860;19.226;2023-02-04T08:11:09;23.85;;;10.85;;
58017;SDS011;43810;50.860;19.226;2023-02-04T08:13:34;20.65;;;10.45;;
58017;SDS011;43810;50.860;19.226;2023-02-04T08:16:00;18.95;;;11.50;;
58017;SDS011;43810;50.860;19.226;2023-02-04T08:18:26;21.02;;;10.30;;
58017;SDS011;43810;50.860;19.226;2023-02-04T08:20:52;24.05;;;10.27;;
58017;SDS011;43810;50.860;19.226;2023-02-04T08:23:18;14.10;;;8.23;;
58017;SDS011;43810;50.860;19.226;2023-02-04T08:25:44;18.27;;;10.30;;
58017;SDS011;43810;50.860;19.226;2023-02-04T08:28:10;24.02;;;10.23;;
58017;SDS011;43810;50.860;19.226;2023-02-04T08:30:36;17.05;;;9.02;;
58017;SDS011;43810;50.860;19.226;2023-02-04T08:33:01;16.77;;;9.27;;
58017;SDS011;43810;50.860;19.226;2023-02-04T08:35:27;21.25;;;11.27;;
58017;SDS011;43810;50.860;19.226;2023-02-04T08:37:53;18.40;;;9.32;;
58017;SDS011;43810;50.860;19.226;2023-02-04T08:40:19;13.57;;;8.80;;
58017;SDS011;43810;50.860;19.226;2023-02-04T08:42:46;16.85;;;8.45;;
58017;SDS011;43810;50.860;19.226;2023-02-04T08:45:12;17.45;;;9.30;;
58017;SDS011;43810;50.860;19.226;2023-02-04T08:47:37;16.63;;;8.68;;
58017;SDS011;43810;50.860;19.226;2023-02-04T08:50:03;17.92;;;8.80;;
58017;SDS011;43810;50.860;19.226;2023-02-04T08:52:29;17.45;;;8.15;;
58017;SDS011;43810;50.860;19.226;2023-02-04T08:54:55;14.90;;;7.70;;
58017;SDS011;43810;50.860;19.226;2023-02-04T08:57:21;17.02;;;8.32;;
58017;SDS011;43810;50.860;19.226;2023-02-04T08:59:47;12.45;;;6.47;;
58017;SDS011;43810;50.860;19.226;2023-02-04T09:02:12;13.07;;;7.18;;
58017;SDS011;43810;50.860;19.226;2023-02-04T09:04:38;13.27;;;7.45;;
58017;SDS011;43810;50.860;19.226;2023-02-04T09:07:04;15.07;;;8.07;;
58017;SDS011;43810;50.860;19.226;2023-02-04T09:09:30;17.88;;;8.13;;
58017;SDS011;43810;50.860;19.226;2023-02-04T09:11:56;13.20;;;7.40;;
58017;SDS011;43810;50.860;19.226;2023-02-04T09:14:21;20.00;;;9.15;;
58017;SDS011;43810;50.860;19.226;2023-02-04T09:16:47;13.02;;;7.05;;
58017;SDS011;43810;50.860;19.226;2023-02-04T09:19:13;15.55;;;7.03;;
58017;SDS011;43810;50.860;19.226;2023-02-04T09:21:41;14.48;;;7.53;;
58017;SDS011;43810;50.860;19.226;2023-02-04T09:24:07;10.20;;;5.70;;
58017;SDS011;43810;50.860;19.226;2023-02-04T09:26:32;14.00;;;6.93;;
58017;SDS011;43810;50.860;19.226;2023-02-04T09:28:58;16.50;;;6.72;;
58017;SDS011;43810;50.860;19.226;2023-02-04T09:31:24;9.90;;;5.45;;
58017;SDS011;43810;50.860;19.226;2023-02-04T09:33:50;9.70;;;5.40;;
58017;SDS011;43810;50.860;19.226;2023-02-04T09:36:16;12.50;;;5.18;;
58017;SDS011;43810;50.860;19.226;2023-02-04T09:38:42;8.35;;;5.00;;
58017;SDS011;43810;50.860;19.226;2023-02-04T09:41:09;10.50;;;5.65;;
58017;SDS011;43810;50.860;19.226;2023-02-04T09:43:40;14.40;;;6.70;;
58017;SDS011;43810;50.860;19.226;2023-02-04T09:46:18;11.55;;;5.82;;
58017;SDS011;43810;50.860;19.226;2023-02-04T09:48:46;9.18;;;4.85;;
58017;SDS011;43810;50.860;19.226;2023-02-04T09:51:14;11.55;;;5.43;;
58017;SDS011;43810;50.860;19.226;2023-02-04T09:53:44;14.25;;;5.05;;
58017;SDS011;43810;50.860;19.226;2023-02-04T09:56:10;7.78;;;3.85;;
58017;SDS011;43810;50.860;19.226;2023-02-04T09:58:37;11.27;;;5.72;;
58017;SDS011;43810;50.860;19.226;2023-02-04T10:03:41;10.73;;;4.72;;
58017;SDS011;43810;50.860;19.226;2023-02-04T10:06:13;10.13;;;5.28;;
58017;SDS011;43810;50.860;19.226;2023-02-04T10:08:41;9.65;;;4.75;;
58017;SDS011;43810;50.860;19.226;2023-02-04T10:11:08;12.52;;;5.13;;
58017;SDS011;43810;50.860;19.226;2023-02-04T10:13:36;7.25;;;4.05;;
58017;SDS011;43810;50.860;19.226;2023-02-04T10:16:10;6.88;;;2.65;;
58017;SDS011;43810;50.860;19.226;2023-02-04T10:18:39;7.25;;;3.65;;
58017;SDS011;43810;50.860;19.226;2023-02-04T10:21:14;8.23;;;3.92;;
58017;SDS011;43810;50.860;19.226;2023-02-04T10:23:43;8.68;;;3.83;;
58017;SDS011;43810;50.860;19.226;2023-02-04T10:26:13;8.60;;;3.70;;
58017;SDS011;43810;50.860;19.226;2023-02-04T10:28:40;5.28;;;3.17;;
58017;SDS011;43810;50.860;19.226;2023-02-04T10:31:25;4.75;;;2.72;;
58017;SDS011;43810;50.860;19.226;2023-02-04T10:34:08;5.88;;;3.30;;
58017;SDS011;43810;50.860;19.226;2023-02-04T10:36:49;6.20;;;3.17;;
58017;SDS011;43810;50.860;19.226;2023-02-04T10:41:54;5.65;;;2.60;;
58017;SDS011;43810;50.860;19.226;2023-02-04T10:46:58;6.35;;;2.80;;
58017;SDS011;43810;50.860;19.226;2023-02-04T10:49:26;6.90;;;2.95;;
58017;SDS011;43810;50.860;19.226;2023-02-04T10:51:52;8.23;;;3.90;;
58017;SDS011;43810;50.860;19.226;2023-02-04T10:54:22;10.68;;;5.07;;
58017;SDS011;43810;50.860;19.226;2023-02-04T10:56:56;10.63;;;5.10;;
58017;SDS011;43810;50.860;19.226;2023-02-04T10:59:32;7.75;;;3.85;;
58017;SDS011;43810;50.860;19.226;2023-02-04T11:01:59;10.13;;;4.40;;
58017;SDS011;43810;50.860;19.226;2023-02-04T11:04:27;10.02;;;4.85;;
58017;SDS011;43810;50.860;19.226;2023-02-04T11:06:53;8.05;;;3.67;;
58017;SDS011;43810;50.860;19.226;2023-02-04T11:09:19;6.03;;;3.00;;
58017;SDS011;43810;50.860;19.226;2023-02-04T11:11:46;6.63;;;3.67;;
58017;SDS011;43810;50.860;19.226;2023-02-04T11:14:25;5.97;;;3.25;;
58017;SDS011;43810;50.860;19.226;2023-02-04T11:16:53;7.75;;;4.40;;
58017;SDS011;43810;50.860;19.226;2023-02-04T11:19:35;8.65;;;4.35;;
58017;SDS011;43810;50.860;19.226;2023-02-04T11:22:04;6.00;;;3.28;;
58017;SDS011;43810;50.860;19.226;2023-02-04T11:24:32;12.23;;;5.53;;
58017;SDS011;43810;50.860;19.226;2023-02-04T11:27:19;7.50;;;4.00;;
58017;SDS011;43810;50.860;19.226;2023-02-04T11:29:49;5.65;;;3.47;;
58017;SDS011;43810;50.860;19.226;2023-02-04T11:32:26;7.50;;;3.30;;
58017;SDS011;43810;50.860;19.226;2023-02-04T11:37:40;9.23;;;3.95;;
58017;SDS011;43810;50.860;19.226;2023-02-04T11:40:30;9.45;;;2.85;;
58017;SDS011;43810;50.860;19.226;2023-02-04T11:43:16;7.50;;;2.67;;
58017;SDS011;43810;50.860;19.226;2023-02-04T11:45:41;17.00;;;7.75;;
58017;SDS011;43810;50.860;19.226;2023-02-04T11:48:11;5.65;;;2.88;;
58017;SDS011;43810;50.860;19.226;2023-02-04T11:50:40;9.82;;;4.72;;
58017;SDS011;43810;50.860;19.226;2023-02-04T11:53:08;8.35;;;3.67;;
58017;SDS011;43810;50.860;19.226;2023-02-04T11:55:42;5.10;;;3.05;;
58017;SDS011;43810;50.860;19.226;2023-02-04T11:58:11;10.80;;;3.25;;
58017;SDS011;43810;50.860;19.226;2023-02-04T12:00:40;9.85;;;4.07;;
58017;SDS011;43810;50.860;19.226;2023-02-04T12:03:18;6.50;;;3.00;;
58017;SDS011;43810;50.860;19.226;2023-02-04T12:05:47;9.02;;;4.18;;
58017;SDS011;43810;50.860;19.226;2023-02-04T12:08:24;28.27;;;9.60;;
58017;SDS011;43810;50.860;19.226;2023-02-04T12:13:46;7.60;;;3.45;;
58017;SDS011;43810;50.860;19.226;2023-02-04T12:16:14;11.43;;;5.18;;
58017;SDS011;43810;50.860;19.226;2023-02-04T12:18:40;10.05;;;5.90;;
58017;SDS011;43810;50.860;19.226;2023-02-04T12:21:06;9.63;;;4.60;;
58017;SDS011;43810;50.860;19.226;2023-02-04T12:23:32;8.80;;;4.57;;
58017;SDS011;43810;50.860;19.226;2023-02-04T12:25:58;12.50;;;5.80;;
58017;SDS011;43810;50.860;19.226;2023-02-04T12:28:24;14.85;;;5.25;;
58017;SDS011;43810;50.860;19.226;2023-02-04T12:30:52;13.80;;;5.88;;
58017;SDS011;43810;50.860;19.226;2023-02-04T12:33:18;10.52;;;4.03;;
58017;SDS011;43810;50.860;19.226;2023-02-04T12:35:44;7.57;;;4.20;;
58017;SDS011;43810;50.860;19.226;2023-02-04T12:38:10;12.70;;;5.07;;
58017;SDS011;43810;50.860;19.226;2023-02-04T12:40:36;16.83;;;7.90;;
58017;SDS011;43810;50.860;19.226;2023-02-04T12:43:02;8.52;;;3.67;;
58017;SDS011;43810;50.860;19.226;2023-02-04T12:45:29;12.57;;;5.75;;
58017;SDS011;43810;50.860;19.226;2023-02-04T12:47:54;9.13;;;4.13;;
58017;SDS011;43810;50.860;19.226;2023-02-04T12:50:20;7.93;;;4.90;;
58017;SDS011;43810;50.860;19.226;2023-02-04T12:52:51;11.77;;;5.15;;
58017;SDS011;43810;50.860;19.226;2023-02-04T12:55:18;7.88;;;4.85;;
58017;SDS011;43810;50.860;19.226;2023-02-04T12:57:45;17.58;;;6.78;;
58017;SDS011;43810;50.860;19.226;2023-02-04T13:00:12;8.18;;;4.10;;
58017;SDS011;43810;50.860;19.226;2023-02-04T13:02:39;12.15;;;4.35;;
58017;SDS011;43810;50.860;19.226;2023-02-04T13:05:05;14.55;;;5.43;;
58017;SDS011;43810;50.860;19.226;2023-02-04T13:07:31;11.20;;;3.55;;
58017;SDS011;43810;50.860;19.226;2023-02-04T13:09:58;11.68;;;4.82;;
58017;SDS011;43810;50.860;19.226;2023-02-04T13:12:24;8.38;;;3.78;;
58017;SDS011;43810;50.860;19.226;2023-02-04T13:14:50;7.68;;;4.20;;
58017;SDS011;43810;50.860;19.226;2023-02-04T13:17:16;9.80;;;3.55;;
58017;SDS011;43810;50.860;19.226;2023-02-04T13:19:42;7.40;;;2.65;;
58017;SDS011;43810;50.860;19.226;2023-02-04T13:22:07;6.35;;;3.30;;
58017;SDS011;43810;50.860;19.226;2023-02-04T13:24:34;11.32;;;4.32;;
58017;SDS011;43810;50.860;19.226;2023-02-04T13:26:59;11.68;;;5.15;;
58017;SDS011;43810;50.860;19.226;2023-02-04T13:29:26;9.50;;;3.88;;
58017;SDS011;43810;50.860;19.226;2023-02-04T13:31:51;9.40;;;4.70;;
58017;SDS011;43810;50.860;19.226;2023-02-04T13:34:18;11.35;;;4.35;;
58017;SDS011;43810;50.860;19.226;2023-02-04T13:36:43;8.82;;;4.53;;
58017;SDS011;43810;50.860;19.226;2023-02-04T13:39:10;10.85;;;4.80;;
58017;SDS011;43810;50.860;19.226;2023-02-04T13:41:36;9.40;;;5.50;;
58017;SDS011;43810;50.860;19.226;2023-02-04T13:44:02;12.70;;;4.90;;
58017;SDS011;43810;50.860;19.226;2023-02-04T13:46:29;13.95;;;5.55;;
58017;SDS011;43810;50.860;19.226;2023-02-04T13:48:55;13.02;;;4.95;;
58017;SDS011;43810;50.860;19.226;2023-02-04T13:51:21;11.13;;;5.05;;
58017;SDS011;43810;50.860;19.226;2023-02-04T13:53:47;12.80;;;4.40;;
58017;SDS011;43810;50.860;19.226;2023-02-04T13:56:12;10.95;;;4.70;;
58017;SDS011;43810;50.860;19.226;2023-02-04T13:58:38;11.57;;;4.95;;
58017;SDS011;43810;50.860;19.226;2023-02-04T14:01:10;9.52;;;5.22;;
58017;SDS011;43810;50.860;19.226;2023-02-04T14:03:37;11.50;;;5.47;;
58017;SDS011;43810;50.860;19.226;2023-02-04T14:06:03;19.20;;;6.25;;
58017;SDS011;43810;50.860;19.226;2023-02-04T14:08:29;19.55;;;7.55;;
58017;SDS011;43810;50.860;19.226;2023-02-04T14:10:55;14.77;;;5.68;;
58017;SDS011;43810;50.860;19.226;2023-02-04T14:13:21;15.27;;;6.22;;
58017;SDS011;43810;50.860;19.226;2023-02-04T14:15:47;19.10;;;7.00;;
58017;SDS011;43810;50.860;19.226;2023-02-04T14:18:13;16.00;;;6.55;;
58017;SDS011;43810;50.860;19.226;2023-02-04T14:20:40;11.65;;;5.38;;
58017;SDS011;43810;50.860;19.226;2023-02-04T14:23:07;10.55;;;5.00;;
58017;SDS011;43810;50.860;19.226;2023-02-04T14:25:33;12.52;;;5.97;;
58017;SDS011;43810;50.860;19.226;2023-02-04T14:27:59;9.27;;;4.57;;
58017;SDS011;43810;50.860;19.226;2023-02-04T14:30:26;14.15;;;4.72;;
58017;SDS011;43810;50.860;19.226;2023-02-04T14:32:53;15.05;;;5.30;;
58017;SDS011;43810;50.860;19.226;2023-02-04T14:35:20;9.02;;;4.55;;
58017;SDS011;43810;50.860;19.226;2023-02-04T14:37:46;11.55;;;5.18;;